Time;durP1;ratioP1;P1;durP2;ratioP2;P2;SDS_P1;SDS_P2;PMS_P1;PMS_P2;Temp;Humidity;BMP_temperature;BMP_pressure;BME280_temperature;BME280_humidity;BME280_pressure;Samples;Min_cycle;Max_cycle;Signal;HPM_P1;HPM_P2
2022/07/06 00:01:44;;;;;;;1.55;0.90;;;;;;;;;;5073802;28;20380;-85
2022/07/06 00:04:10;;;;;;;1.40;0.88;;;;;;;;;;5074236;28;20386;-86
2022/07/06 00:06:36;;;;;;;2.67;0.85;;;;;;;;;;5073493;28;20431;-86
2022/07/06 00:09:02;;;;;;;2.27;1.00;;;;;;;;;;5073938;28;20513;-86
2022/07/06 00:11:28;;;;;;;1.65;0.80;;;;;;;;;;5073265;28;20871;-86
2022/07/06 00:13:56;;;;;;;3.65;1.10;;;;;;;;;;5073774;28;20399;-86
2022/07/06 00:16:22;;;;;;;1.17;0.90;;;;;;;;;;5071905;28;20380;-86
2022/07/06 00:18:48;;;;;;;2.47;0.90;;;;;;;;;;5053791;28;20377;-86
2022/07/06 00:21:14;;;;;;;1.70;0.80;;;;;;;;;;5064454;28;20453;-86
2022/07/06 00:23:40;;;;;;;1.52;1.00;;;;;;;;;;5073551;28;20853;-85
2022/07/06 00:26:06;;;;;;;1.23;0.80;;;;;;;;;;5075999;28;20395;-86
2022/07/06 00:28:32;;;;;;;1.90;0.90;;;;;;;;;;5073457;28;20380;-86
2022/07/06 00:30:58;;;;;;;2.45;1.10;;;;;;;;;;5073442;28;20459;-86
2022/07/06 00:33:24;;;;;;;2.28;0.88;;;;;;;;;;5072261;28;20866;-85
2022/07/06 00:35:50;;;;;;;1.88;0.90;;;;;;;;;;5072085;28;20749;-86
2022/07/06 00:38:16;;;;;;;1.42;0.88;;;;;;;;;;5072041;28;20380;-86
2022/07/06 00:40:42;;;;;;;1.20;0.80;;;;;;;;;;5073134;28;20403;-85
2022/07/06 00:43:08;;;;;;;1.57;0.80;;;;;;;;;;5072151;28;20410;-85
2022/07/06 00:45:34;;;;;;;2.03;1.05;;;;;;;;;;5072910;28;20400;-86
2022/07/06 00:48:00;;;;;;;1.33;0.90;;;;;;;;;;5077014;28;20398;-86
2022/07/06 00:50:28;;;;;;;1.00;0.88;;;;;;;;;;5063557;28;20373;-85
2022/07/06 00:52:59;;;;;;;2.67;0.80;;;;;;;;;;5053373;28;20472;-85
2022/07/06 00:55:28;;;;;;;1.70;0.70;;;;;;;;;;5053024;28;20392;-85
2022/07/06 00:57:55;;;;;;;1.58;0.95;;;;;;;;;;5057940;28;20383;-86
2022/07/06 01:00:22;;;;;;;1.60;0.90;;;;;;;;;;5072671;28;20383;-86
2022/07/06 01:02:48;;;;;;;1.15;0.85;;;;;;;;;;5072834;28;20384;-86
2022/07/06 01:05:15;;;;;;;0.90;0.82;;;;;;;;;;5072757;28;20490;-86
2022/07/06 01:07:41;;;;;;;0.95;0.80;;;;;;;;;;5072722;28;20384;-85
2022/07/06 01:10:09;;;;;;;1.20;0.88;;;;;;;;;;5072677;28;20384;-86
2022/07/06 01:12:36;;;;;;;2.75;0.80;;;;;;;;;;5072640;28;20384;-86
2022/07/06 01:15:03;;;;;;;1.30;0.90;;;;;;;;;;5072450;28;20380;-86
2022/07/06 01:17:30;;;;;;;1.83;1.00;;;;;;;;;;5072544;28;20384;-85
2022/07/06 01:19:56;;;;;;;1.77;0.90;;;;;;;;;;5072574;28;20395;-85
2022/07/06 01:22:22;;;;;;;2.57;1.00;;;;;;;;;;5072480;28;20392;-85
2022/07/06 01:24:48;;;;;;;3.80;1.00;;;;;;;;;;5058633;28;20374;-85
2022/07/06 01:27:14;;;;;;;0.90;0.90;;;;;;;;;;5053447;28;20774;-85
2022/07/06 01:29:40;;;;;;;2.08;0.90;;;;;;;;;;5072434;28;20384;-85
2022/07/06 01:32:06;;;;;;;1.80;0.90;;;;;;;;;;5072523;28;20429;-85
2022/07/06 01:34:32;;;;;;;1.48;1.00;;;;;;;;;;5072363;28;20434;-85
2022/07/06 01:36:58;;;;;;;1.77;0.90;;;;;;;;;;5072283;28;20450;-86
2022/07/06 01:39:24;;;;;;;1.17;1.00;;;;;;;;;;5072249;28;20481;-85
2022/07/06 01:41:50;;;;;;;2.00;1.00;;;;;;;;;;5071239;28;20392;-86
2022/07/06 01:44:16;;;;;;;1.08;0.90;;;;;;;;;;5072525;28;20745;-85
2022/07/06 01:46:42;;;;;;;1.80;1.10;;;;;;;;;;5072143;28;20411;-85
2022/07/06 01:49:08;;;;;;;1.10;0.80;;;;;;;;;;5072199;28;20925;-85
2022/07/06 01:51:34;;;;;;;2.23;1.10;;;;;;;;;;5070863;28;20376;-86
2022/07/06 01:54:00;;;;;;;1.20;0.98;;;;;;;;;;5072008;28;20399;-85
2022/07/06 01:56:26;;;;;;;3.15;1.30;;;;;;;;;;5072311;28;20379;-85
2022/07/06 01:58:52;;;;;;;1.35;1.10;;;;;;;;;;5071977;28;20391;-86
2022/07/06 02:01:20;;;;;;;4.38;1.10;;;;;;;;;;5072040;28;20403;-86
2022/07/06 02:03:47;;;;;;;1.42;1.00;;;;;;;;;;5070756;28;20379;-85
2022/07/06 02:06:13;;;;;;;1.77;1.23;;;;;;;;;;5071877;28;20403;-85
2022/07/06 02:08:39;;;;;;;1.30;0.90;;;;;;;;;;5071581;28;20379;-85
2022/07/06 02:11:06;;;;;;;1.10;0.90;;;;;;;;;;5071994;28;20380;-85
2022/07/06 02:13:32;;;;;;;2.45;0.93;;;;;;;;;;5071912;28;20923;-85
2022/07/06 02:15:58;;;;;;;2.47;1.10;;;;;;;;;;5072066;28;20476;-85
2022/07/06 02:18:24;;;;;;;1.35;0.90;;;;;;;;;;5071885;28;20830;-85
2022/07/06 02:20:50;;;;;;;1.45;1.00;;;;;;;;;;5070485;28;20773;-85
2022/07/06 02:23:16;;;;;;;2.87;1.07;;;;;;;;;;5072208;28;20392;-85
2022/07/06 02:25:42;;;;;;;2.92;0.90;;;;;;;;;;5070685;28;20436;-85
2022/07/06 02:28:08;;;;;;;5.10;1.10;;;;;;;;;;5071880;28;20488;-85
2022/07/06 02:30:34;;;;;;;2.72;1.13;;;;;;;;;;5074225;28;20379;-84
2022/07/06 02:33:00;;;;;;;1.23;0.90;;;;;;;;;;5071843;28;20521;-86
2022/07/06 02:35:27;;;;;;;1.30;1.00;;;;;;;;;;5071557;28;20384;-85
2022/07/06 02:37:53;;;;;;;2.35;1.10;;;;;;;;;;5072975;28;20376;-85
2022/07/06 02:40:19;;;;;;;1.85;1.23;;;;;;;;;;5071640;28;20402;-86
2022/07/06 02:42:45;;;;;;;1.90;1.30;;;;;;;;;;5071736;28;20772;-85
2022/07/06 02:45:11;;;;;;;2.38;1.20;;;;;;;;;;5073724;28;20396;-85
2022/07/06 02:47:37;;;;;;;1.58;1.10;;;;;;;;;;5070309;28;20388;-85
2022/07/06 02:50:04;;;;;;;1.55;1.15;;;;;;;;;;5071789;28;20380;-85
2022/07/06 02:52:30;;;;;;;2.40;1.38;;;;;;;;;;5071588;28;20386;-85
2022/07/06 02:54:56;;;;;;;1.20;1.00;;;;;;;;;;5071564;28;20376;-85
2022/07/06 02:57:22;;;;;;;2.95;1.40;;;;;;;;;;5071450;28;20376;-85
2022/07/06 02:59:49;;;;;;;2.45;1.40;;;;;;;;;;5071401;28;20733;-85
2022/07/06 03:02:16;;;;;;;2.00;1.20;;;;;;;;;;5071487;28;20372;-87
2022/07/06 03:04:42;;;;;;;1.48;1.30;;;;;;;;;;5071526;28;20380;-87
2022/07/06 03:07:08;;;;;;;1.38;1.27;;;;;;;;;;5074193;28;20532;-88
2022/07/06 03:09:34;;;;;;;2.40;1.50;;;;;;;;;;5074940;28;20467;-87
2022/07/06 03:12:00;;;;;;;1.40;1.30;;;;;;;;;;5075402;28;20841;-87
2022/07/06 03:14:26;;;;;;;2.00;1.23;;;;;;;;;;5073703;28;20372;-88
2022/07/06 03:16:53;;;;;;;1.65;1.55;;;;;;;;;;5075147;28;20522;-88
2022/07/06 03:19:19;;;;;;;1.58;1.33;;;;;;;;;;5074923;28;20390;-87
2022/07/06 03:21:45;;;;;;;1.70;1.30;;;;;;;;;;5074674;28;20392;-87
2022/07/06 03:24:11;;;;;;;1.60;1.50;;;;;;;;;;5074778;28;20380;-87
2022/07/06 03:26:37;;;;;;;1.60;1.50;;;;;;;;;;5074605;28;20408;-88
2022/07/06 03:29:03;;;;;;;2.00;1.43;;;;;;;;;;5074772;28;20433;-88
2022/07/06 03:31:29;;;;;;;1.48;1.38;;;;;;;;;;5074577;28;20768;-87
2022/07/06 03:33:55;;;;;;;1.50;1.30;;;;;;;;;;5074568;28;20853;-87
2022/07/06 03:36:21;;;;;;;1.50;1.40;;;;;;;;;;5074582;28;20387;-87
2022/07/06 03:38:47;;;;;;;2.05;1.60;;;;;;;;;;5073181;28;20391;-88
2022/07/06 03:41:13;;;;;;;1.70;1.40;;;;;;;;;;5074378;28;20383;-88
2022/07/06 03:43:39;;;;;;;2.72;1.23;;;;;;;;;;5074306;28;20868;-87
2022/07/06 03:46:05;;;;;;;1.60;1.30;;;;;;;;;;5074349;28;20396;-87
2022/07/06 03:48:31;;;;;;;1.95;1.23;;;;;;;;;;5074392;28;20406;-87
2022/07/06 03:50:57;;;;;;;1.48;1.38;;;;;;;;;;5074139;28;20384;-87
2022/07/06 03:53:23;;;;;;;1.98;1.33;;;;;;;;;;5074221;28;20397;-88
2022/07/06 03:58:34;;;;;;;2.67;1.30;;;;;;;;;;5074297;28;20437;-87
2022/07/06 04:01:00;;;;;;;2.28;1.23;;;;;;;;;;5074285;28;20383;-88
2022/07/06 04:03:26;;;;;;;2.17;1.50;;;;;;;;;;5074117;28;20438;-87
2022/07/06 04:05:52;;;;;;;2.55;1.50;;;;;;;;;;5071978;28;20884;-87
2022/07/06 04:08:19;;;;;;;2.17;1.30;;;;;;;;;;5074066;28;20387;-87
2022/07/06 04:10:45;;;;;;;3.67;1.50;;;;;;;;;;5074131;28;20376;-86
2022/07/06 04:13:11;;;;;;;1.98;1.38;;;;;;;;;;5074209;28;20375;-87
2022/07/06 04:15:37;;;;;;;2.75;1.50;;;;;;;;;;5074032;28;20380;-87
2022/07/06 04:18:04;;;;;;;2.45;1.70;;;;;;;;;;5072978;28;20387;-87
2022/07/06 04:20:30;;;;;;;2.83;1.45;;;;;;;;;;5072444;28;20402;-87
2022/07/06 04:22:56;;;;;;;2.33;1.50;;;;;;;;;;5072395;28;20433;-86
2022/07/06 04:25:22;;;;;;;2.33;1.60;;;;;;;;;;5067733;28;20409;-87
2022/07/06 04:27:50;;;;;;;2.85;1.75;;;;;;;;;;5051671;28;20483;-85
2022/07/06 04:30:16;;;;;;;1.73;1.38;;;;;;;;;;5055261;28;20396;-85
2022/07/06 04:32:42;;;;;;;1.65;1.40;;;;;;;;;;5069110;28;20465;-83
2022/07/06 04:35:08;;;;;;;2.80;1.53;;;;;;;;;;5067196;28;20877;-84
2022/07/06 04:37:34;;;;;;;1.42;1.33;;;;;;;;;;5075944;28;20403;-84
2022/07/06 04:40:00;;;;;;;2.05;1.40;;;;;;;;;;5072051;28;20379;-86
2022/07/06 04:42:26;;;;;;;2.13;1.33;;;;;;;;;;5069165;28;20383;-84
2022/07/06 04:44:52;;;;;;;3.47;1.80;;;;;;;;;;5070563;28;20408;-86
2022/07/06 04:47:21;;;;;;;2.20;1.40;;;;;;;;;;5072535;28;20386;-87
2022/07/06 04:49:47;;;;;;;3.22;1.60;;;;;;;;;;5072242;28;20694;-81
2022/07/06 04:52:13;;;;;;;1.70;1.40;;;;;;;;;;5070387;28;20851;-81
2022/07/06 04:54:39;;;;;;;1.73;1.60;;;;;;;;;;5070408;28;20853;-81
2022/07/06 04:57:05;;;;;;;2.55;1.60;;;;;;;;;;5072883;28;20406;-81
2022/07/06 04:59:31;;;;;;;2.15;1.42;;;;;;;;;;5071921;28;20391;-81
2022/07/06 05:01:57;;;;;;;4.03;1.20;;;;;;;;;;5072815;28;20394;-81
2022/07/06 05:04:24;;;;;;;1.60;1.23;;;;;;;;;;5072682;28;20928;-81
2022/07/06 05:06:50;;;;;;;2.25;1.20;;;;;;;;;;5072078;28;20411;-81
2022/07/06 05:09:16;;;;;;;2.60;1.40;;;;;;;;;;5071410;28;20418;-83
2022/07/06 05:11:42;;;;;;;2.70;1.50;;;;;;;;;;5071257;28;20726;-83
2022/07/06 05:14:08;;;;;;;2.58;1.40;;;;;;;;;;5071783;28;20437;-83
2022/07/06 05:16:34;;;;;;;2.33;1.30;;;;;;;;;;5066475;28;20400;-83
2022/07/06 05:19:00;;;;;;;1.30;1.20;;;;;;;;;;5069324;28;20388;-82
2022/07/06 05:21:26;;;;;;;1.65;1.30;;;;;;;;;;5070169;28;20730;-82
2022/07/06 05:23:52;;;;;;;2.85;1.40;;;;;;;;;;5071342;28;20391;-83
2022/07/06 05:26:18;;;;;;;2.80;1.30;;;;;;;;;;5069494;28;20423;-83
2022/07/06 05:28:44;;;;;;;2.83;1.57;;;;;;;;;;5070569;28;20418;-83
2022/07/06 05:31:10;;;;;;;2.58;1.38;;;;;;;;;;5072267;28;20872;-83
2022/07/06 05:33:36;;;;;;;2.30;1.30;;;;;;;;;;5070601;28;20384;-83
2022/07/06 05:36:02;;;;;;;2.08;1.20;;;;;;;;;;5072583;28;20387;-80
2022/07/06 05:38:28;;;;;;;3.22;1.25;;;;;;;;;;5071697;28;20462;-84
2022/07/06 05:40:54;;;;;;;2.20;1.50;;;;;;;;;;5068978;28;20438;-84
2022/07/06 05:43:20;;;;;;;2.03;1.30;;;;;;;;;;5054754;28;20412;-84
2022/07/06 05:45:46;;;;;;;1.50;1.20;;;;;;;;;;5066207;28;20403;-84
2022/07/06 05:50:57;;;;;;;1.20;1.10;;;;;;;;;;5056981;28;20383;-84
2022/07/06 05:53:23;;;;;;;3.17;1.60;;;;;;;;;;5070936;28;20383;-85
2022/07/06 05:55:49;;;;;;;1.98;1.42;;;;;;;;;;5071043;28;20410;-85
2022/07/06 05:58:15;;;;;;;3.40;1.40;;;;;;;;;;5071941;28;20379;-84
2022/07/06 06:00:41;;;;;;;2.90;1.50;;;;;;;;;;5072187;28;20375;-84
2022/07/06 06:03:07;;;;;;;2.45;1.50;;;;;;;;;;5071399;28;20394;-84
2022/07/06 06:05:33;;;;;;;2.00;1.38;;;;;;;;;;5071654;28;20487;-84
2022/07/06 06:07:59;;;;;;;2.95;1.50;;;;;;;;;;5072049;28;20844;-84
2022/07/06 06:10:25;;;;;;;1.90;1.40;;;;;;;;;;5071970;28;20390;-84
2022/07/06 06:12:52;;;;;;;1.70;1.33;;;;;;;;;;5071981;28;20379;-84
2022/07/06 06:15:18;;;;;;;2.42;1.30;;;;;;;;;;5071959;28;20871;-85
2022/07/06 06:17:44;;;;;;;2.35;1.42;;;;;;;;;;5070672;28;20380;-84
2022/07/06 06:20:12;;;;;;;1.40;1.30;;;;;;;;;;5071143;28;20437;-85
2022/07/06 06:22:46;;;;;;;2.03;1.50;;;;;;;;;;5071124;28;20380;-85
2022/07/06 06:25:12;;;;;;;3.28;1.40;;;;;;;;;;5072243;28;20372;-84
2022/07/06 06:27:38;;;;;;;1.30;1.20;;;;;;;;;;5074270;28;20471;-85
2022/07/06 06:30:04;;;;;;;2.20;1.50;;;;;;;;;;5071071;28;20411;-85
2022/07/06 06:32:30;;;;;;;1.90;1.27;;;;;;;;;;5071780;28;20375;-85
2022/07/06 06:34:56;;;;;;;1.50;1.20;;;;;;;;;;5071740;28;20379;-85
2022/07/06 06:37:22;;;;;;;1.53;1.37;;;;;;;;;;5071747;28;20551;-84
2022/07/06 06:39:48;;;;;;;2.17;1.33;;;;;;;;;;5071086;28;20375;-84
2022/07/06 06:42:14;;;;;;;1.90;1.40;;;;;;;;;;5073479;28;20864;-85
2022/07/06 06:44:40;;;;;;;2.90;1.30;;;;;;;;;;5078027;28;20380;-87
2022/07/06 06:47:06;;;;;;;2.25;1.30;;;;;;;;;;5075318;28;20407;-85
2022/07/06 06:49:32;;;;;;;2.08;1.42;;;;;;;;;;5074618;28;20383;-85
2022/07/06 06:51:58;;;;;;;2.88;1.30;;;;;;;;;;5073012;28;20376;-84
2022/07/06 06:54:24;;;;;;;2.10;1.50;;;;;;;;;;5073479;28;20387;-85
2022/07/06 06:56:50;;;;;;;2.97;1.30;;;;;;;;;;5074142;28;20395;-85
2022/07/06 06:59:16;;;;;;;2.33;1.70;;;;;;;;;;5073846;28;20379;-85
2022/07/06 07:01:42;;;;;;;1.70;1.35;;;;;;;;;;5068612;28;20445;-84
2022/07/06 07:04:08;;;;;;;2.92;1.73;;;;;;;;;;5075084;28;20768;-85
2022/07/06 07:06:34;;;;;;;2.55;1.35;;;;;;;;;;5075066;28;20403;-85
2022/07/06 07:09:00;;;;;;;2.25;1.35;;;;;;;;;;5074946;28;20774;-85
2022/07/06 07:11:26;;;;;;;2.80;1.55;;;;;;;;;;5073857;28;20470;-84
2022/07/06 07:13:52;;;;;;;1.63;1.40;;;;;;;;;;5074595;28;20451;-85
2022/07/06 07:16:18;;;;;;;1.83;1.30;;;;;;;;;;5073475;28;20411;-85
2022/07/06 07:18:44;;;;;;;1.97;1.40;;;;;;;;;;5073938;28;20912;-85
2022/07/06 07:21:10;;;;;;;1.60;1.40;;;;;;;;;;5073535;28;20396;-85
2022/07/06 07:23:36;;;;;;;2.67;1.40;;;;;;;;;;5073800;28;20376;-85
2022/07/06 07:26:02;;;;;;;2.00;1.30;;;;;;;;;;5073524;28;20966;-85
2022/07/06 07:28:28;;;;;;;1.98;1.30;;;;;;;;;;5073292;28;20368;-85
2022/07/06 07:30:54;;;;;;;2.27;1.40;;;;;;;;;;5074053;28;20489;-86
2022/07/06 07:33:20;;;;;;;1.30;1.10;;;;;;;;;;5073772;28;20379;-85
2022/07/06 07:35:46;;;;;;;1.65;1.40;;;;;;;;;;5072745;28;20384;-85
2022/07/06 07:38:13;;;;;;;3.47;1.30;;;;;;;;;;5073394;28;20382;-85
2022/07/06 07:40:39;;;;;;;1.60;1.27;;;;;;;;;;5073362;28;20749;-85
2022/07/06 07:43:05;;;;;;;2.78;1.52;;;;;;;;;;5069657;28;20722;-85
2022/07/06 07:45:31;;;;;;;2.50;1.48;;;;;;;;;;5073250;28;20410;-86
2022/07/06 07:47:57;;;;;;;1.80;1.40;;;;;;;;;;5073366;28;20380;-85
2022/07/06 07:50:23;;;;;;;1.50;1.38;;;;;;;;;;5073344;28;20388;-85
2022/07/06 07:52:49;;;;;;;1.88;1.40;;;;;;;;;;5072307;28;20877;-86
2022/07/06 07:55:15;;;;;;;2.47;1.33;;;;;;;;;;5073916;28;20372;-86
2022/07/06 07:57:41;;;;;;;3.00;1.33;;;;;;;;;;5074471;28;20421;-85
2022/07/06 08:00:07;;;;;;;3.42;1.50;;;;;;;;;;5074061;28;20399;-85
2022/07/06 08:02:33;;;;;;;3.58;1.65;;;;;;;;;;5074026;28;20458;-85
2022/07/06 08:04:59;;;;;;;3.20;1.50;;;;;;;;;;5074006;28;20909;-86
2022/07/06 08:07:25;;;;;;;1.77;1.40;;;;;;;;;;5071870;28;20399;-86
2022/07/06 08:09:51;;;;;;;2.08;1.40;;;;;;;;;;5073404;28;20384;-86
2022/07/06 08:12:17;;;;;;;4.03;2.00;;;;;;;;;;5073391;28;20415;-85
2022/07/06 08:14:43;;;;;;;1.65;1.10;;;;;;;;;;5073818;28;20939;-85
2022/07/06 08:17:09;;;;;;;2.40;1.25;;;;;;;;;;5075932;28;20383;-86
2022/07/06 08:19:35;;;;;;;1.45;1.35;;;;;;;;;;5073838;28;20448;-87
2022/07/06 08:22:06;;;;;;;3.23;1.50;;;;;;;;;;5073946;28;20388;-86
2022/07/06 08:24:32;;;;;;;4.50;1.73;;;;;;;;;;5075671;28;20392;-86
2022/07/06 08:26:58;;;;;;;2.28;1.50;;;;;;;;;;5073498;28;20545;-86
2022/07/06 08:29:24;;;;;;;1.92;1.40;;;;;;;;;;5073082;28;20379;-86
2022/07/06 08:31:50;;;;;;;3.20;1.45;;;;;;;;;;5073375;28;20380;-86
2022/07/06 08:34:16;;;;;;;2.78;1.60;;;;;;;;;;5073561;28;20407;-86
2022/07/06 08:36:42;;;;;;;2.17;1.33;;;;;;;;;;5075770;28;20581;-86
2022/07/06 08:39:08;;;;;;;2.50;1.30;;;;;;;;;;5073381;28;20513;-86
2022/07/06 08:41:35;;;;;;;3.47;1.50;;;;;;;;;;5073232;28;20384;-86
2022/07/06 08:44:02;;;;;;;2.50;1.20;;;;;;;;;;5072857;28;20501;-86
2022/07/06 08:46:29;;;;;;;2.08;1.23;;;;;;;;;;5071191;28;20399;-86
2022/07/06 08:48:56;;;;;;;3.05;1.40;;;;;;;;;;5072823;28;20375;-86
2022/07/06 08:51:22;;;;;;;2.40;1.27;;;;;;;;;;5072859;28;20459;-87
2022/07/06 08:53:50;;;;;;;2.80;1.35;;;;;;;;;;5073059;28;20387;-86
2022/07/06 08:56:17;;;;;;;2.25;1.55;;;;;;;;;;5072995;28;20380;-87
2022/07/06 08:58:43;;;;;;;2.53;1.48;;;;;;;;;;5073203;28;20392;-87
2022/07/06 09:01:12;;;;;;;1.60;1.30;;;;;;;;;;5072403;28;20375;-86
2022/07/06 09:03:41;;;;;;;1.42;0.93;;;;;;;;;;5072291;28;20391;-87
2022/07/06 09:06:08;;;;;;;2.20;1.30;;;;;;;;;;5072342;28;20399;-87
2022/07/06 09:08:36;;;;;;;1.92;1.30;;;;;;;;;;5072730;28;20376;-86
2022/07/06 09:11:02;;;;;;;1.30;1.20;;;;;;;;;;5071309;28;20380;-87
2022/07/06 09:13:28;;;;;;;2.92;1.42;;;;;;;;;;5072740;28;20425;-87
2022/07/06 09:15:54;;;;;;;3.42;1.15;;;;;;;;;;5072629;28;20514;-87
2022/07/06 09:18:22;;;;;;;9.95;1.80;;;;;;;;;;5072113;28;20429;-86
2022/07/06 09:20:48;;;;;;;4.57;1.60;;;;;;;;;;5072288;28;20463;-86
2022/07/06 09:23:16;;;;;;;3.03;1.15;;;;;;;;;;5072962;28;20384;-87
2022/07/06 09:25:42;;;;;;;1.90;1.10;;;;;;;;;;5072190;28;20403;-86
2022/07/06 09:28:08;;;;;;;3.15;1.27;;;;;;;;;;5072356;28;20387;-87
2022/07/06 09:30:39;;;;;;;1.83;1.52;;;;;;;;;;5072391;28;20380;-87
2022/07/06 09:33:08;;;;;;;2.00;1.10;;;;;;;;;;5072383;28;20383;-87
2022/07/06 09:35:38;;;;;;;3.38;0.90;;;;;;;;;;5072500;28;20380;-87
2022/07/06 09:38:12;;;;;;;1.40;1.30;;;;;;;;;;5071909;28;20448;-87
2022/07/06 09:40:39;;;;;;;2.90;1.20;;;;;;;;;;5072257;28;20387;-87
2022/07/06 09:43:16;;;;;;;2.05;1.20;;;;;;;;;;5070602;28;20388;-86
2022/07/06 09:45:52;;;;;;;2.80;1.30;;;;;;;;;;5072174;28;20410;-87
2022/07/06 09:48:22;;;;;;;1.40;1.30;;;;;;;;;;5072255;28;20383;-88
2022/07/06 09:50:50;;;;;;;2.35;1.20;;;;;;;;;;5072162;28;20402;-87
2022/07/06 09:53:17;;;;;;;2.42;1.30;;;;;;;;;;5072420;28;20371;-87
2022/07/06 09:55:49;;;;;;;2.42;1.30;;;;;;;;;;5071728;28;20876;-87
2022/07/06 09:58:16;;;;;;;1.92;1.20;;;;;;;;;;5072210;28;20865;-87
2022/07/06 10:00:45;;;;;;;2.30;1.30;;;;;;;;;;5072000;28;20380;-87
2022/07/06 10:03:12;;;;;;;2.80;1.13;;;;;;;;;;5071708;28;20388;-88
2022/07/06 10:05:39;;;;;;;3.40;1.10;;;;;;;;;;5072241;28;20407;-87
2022/07/06 10:08:08;;;;;;;1.50;1.20;;;;;;;;;;5070727;28;20745;-86
2022/07/06 10:10:35;;;;;;;2.67;1.15;;;;;;;;;;5071480;28;20387;-87
2022/07/06 10:13:02;;;;;;;2.17;1.17;;;;;;;;;;5072553;28;20722;-87
2022/07/06 10:15:31;;;;;;;3.13;1.13;;;;;;;;;;5074022;28;20376;-87
2022/07/06 10:17:57;;;;;;;3.50;1.20;;;;;;;;;;5074704;28;20410;-87
2022/07/06 10:20:23;;;;;;;7.72;1.50;;;;;;;;;;5075982;28;20869;-87
2022/07/06 10:22:50;;;;;;;2.80;1.30;;;;;;;;;;5075477;28;20745;-87
2022/07/06 10:25:16;;;;;;;2.03;1.40;;;;;;;;;;5076296;28;20376;-87
2022/07/06 10:27:43;;;;;;;1.98;1.48;;;;;;;;;;5075909;28;20406;-87
2022/07/06 10:30:09;;;;;;;2.67;1.20;;;;;;;;;;5078029;28;20823;-87
2022/07/06 10:32:38;;;;;;;3.45;1.35;;;;;;;;;;5075800;28;20386;-86
2022/07/06 10:35:04;;;;;;;2.88;1.38;;;;;;;;;;5075668;28;20374;-87
2022/07/06 10:37:32;;;;;;;1.80;1.27;;;;;;;;;;5075481;28;20441;-87
2022/07/06 10:42:45;;;;;;;1.75;1.30;;;;;;;;;;5075650;28;20383;-87
2022/07/06 10:45:12;;;;;;;2.10;1.40;;;;;;;;;;5075461;28;20486;-87
2022/07/06 10:47:38;;;;;;;2.00;1.20;;;;;;;;;;5075086;28;20428;-87
2022/07/06 10:50:05;;;;;;;1.98;1.42;;;;;;;;;;5075333;28;20384;-87
2022/07/06 10:52:49;;;;;;;2.90;1.50;;;;;;;;;;5075371;28;20457;-86
2022/07/06 10:55:50;;;;;;;3.22;1.60;;;;;;;;;;5074735;28;20425;-87
2022/07/06 10:58:16;;;;;;;2.30;1.60;;;;;;;;;;5043658;28;20378;-86
2022/07/06 11:00:52;;;;;;;1.40;1.20;;;;;;;;;;5072403;28;20799;-87
2022/07/06 11:03:33;;;;;;;2.00;1.20;;;;;;;;;;5075210;28;20812;-87
2022/07/06 11:06:05;;;;;;;3.07;1.10;;;;;;;;;;5074701;28;20493;-87
2022/07/06 11:08:44;;;;;;;1.50;1.27;;;;;;;;;;5074952;28;20383;-86
2022/07/06 11:11:11;;;;;;;3.60;1.10;;;;;;;;;;5074868;28;20368;-87
2022/07/06 11:13:58;;;;;;;2.00;1.40;;;;;;;;;;5074575;28;20425;-87
2022/07/06 11:16:26;;;;;;;1.95;1.70;;;;;;;;;;5075178;28;20387;-87
2022/07/06 11:19:04;;;;;;;3.50;1.52;;;;;;;;;;5074877;28;20903;-87
2022/07/06 11:21:38;;;;;;;3.40;1.47;;;;;;;;;;5074747;28;20387;-88
2022/07/06 11:24:05;;;;;;;3.45;1.40;;;;;;;;;;5074335;28;20376;-87
2022/07/06 11:26:32;;;;;;;2.13;1.27;;;;;;;;;;5074311;28;20399;-88
2022/07/06 11:29:02;;;;;;;1.83;1.40;;;;;;;;;;5074740;28;20414;-87
2022/07/06 11:31:28;;;;;;;3.55;1.30;;;;;;;;;;5074350;28;20380;-88
2022/07/06 11:33:54;;;;;;;3.85;1.50;;;;;;;;;;5073384;28;20461;-88
2022/07/06 11:36:21;;;;;;;2.15;1.10;;;;;;;;;;5074418;28;20383;-87
2022/07/06 11:38:48;;;;;;;1.98;1.30;;;;;;;;;;5074616;28;20379;-88
2022/07/06 11:41:15;;;;;;;2.17;1.13;;;;;;;;;;5074011;28;20379;-88
2022/07/06 11:43:45;;;;;;;1.70;1.10;;;;;;;;;;5074661;28;20451;-88
2022/07/06 11:46:23;;;;;;;2.23;1.07;;;;;;;;;;5074374;28;20399;-87
2022/07/06 11:48:50;;;;;;;1.17;0.88;;;;;;;;;;5074216;28;20392;-88
2022/07/06 11:51:16;;;;;;;1.23;1.00;;;;;;;;;;5074073;28;20431;-88
2022/07/06 11:53:44;;;;;;;1.58;1.20;;;;;;;;;;5074262;28;20376;-87
2022/07/06 11:56:10;;;;;;;2.15;1.30;;;;;;;;;;5074222;28;20379;-87
2022/07/06 11:58:36;;;;;;;1.52;1.10;;;;;;;;;;5073821;28;20371;-87
2022/07/06 12:01:06;;;;;;;2.30;1.20;;;;;;;;;;5073506;28;20383;-87
2022/07/06 12:03:32;;;;;;;1.20;1.02;;;;;;;;;;5074159;28;20380;-87
2022/07/06 12:05:59;;;;;;;1.87;1.13;;;;;;;;;;5073436;28;20410;-87
2022/07/06 12:08:25;;;;;;;2.20;0.98;;;;;;;;;;5074096;28;20376;-87
2022/07/06 12:10:52;;;;;;;1.98;1.23;;;;;;;;;;5073971;28;20380;-87
2022/07/06 12:13:18;;;;;;;5.40;1.15;;;;;;;;;;5073579;28;20425;-86
2022/07/06 12:15:44;;;;;;;1.35;1.20;;;;;;;;;;5073627;28;20403;-87
2022/07/06 12:18:11;;;;;;;1.92;0.95;;;;;;;;;;5073809;28;20860;-87
2022/07/06 12:20:37;;;;;;;2.22;1.00;;;;;;;;;;5073489;28;20968;-87
2022/07/06 12:23:04;;;;;;;2.03;1.02;;;;;;;;;;5073322;28;20387;-88
2022/07/06 12:25:31;;;;;;;1.55;0.90;;;;;;;;;;5073594;28;20407;-87
2022/07/06 12:27:57;;;;;;;1.42;1.10;;;;;;;;;;5073627;28;20430;-87
2022/07/06 12:30:23;;;;;;;1.20;1.10;;;;;;;;;;5076156;28;20385;-87
2022/07/06 12:33:09;;;;;;;2.40;1.08;;;;;;;;;;5072992;28;20430;-87
2022/07/06 12:35:35;;;;;;;2.42;1.10;;;;;;;;;;5076370;28;20374;-87
2022/07/06 12:38:01;;;;;;;1.40;1.05;;;;;;;;;;5059919;28;20384;-87
2022/07/06 12:40:28;;;;;;;2.40;1.10;;;;;;;;;;5053015;28;20561;-87
2022/07/06 12:42:54;;;;;;;2.53;1.20;;;;;;;;;;5053447;28;20382;-88
2022/07/06 12:45:20;;;;;;;1.90;1.13;;;;;;;;;;5073044;28;20913;-87
2022/07/06 12:48:04;;;;;;;2.45;1.17;;;;;;;;;;5073359;28;20730;-87
2022/07/06 12:50:34;;;;;;;1.67;1.10;;;;;;;;;;5072781;28;20382;-88
2022/07/06 12:53:00;;;;;;;2.95;1.10;;;;;;;;;;5072889;28;20376;-87
2022/07/06 12:55:27;;;;;;;1.55;1.10;;;;;;;;;;5072069;28;20429;-88
2022/07/06 12:57:53;;;;;;;1.48;1.05;;;;;;;;;;5072999;28;20737;-87
2022/07/06 13:00:21;;;;;;;1.10;1.00;;;;;;;;;;5072300;28;20375;-87
2022/07/06 13:02:48;;;;;;;2.28;1.17;;;;;;;;;;5052902;28;20370;-88
2022/07/06 13:05:15;;;;;;;1.67;1.10;;;;;;;;;;5051870;28;20464;-88
2022/07/06 13:07:45;;;;;;;2.65;1.30;;;;;;;;;;5052838;28;20804;-87
2022/07/06 13:10:12;;;;;;;1.70;1.20;;;;;;;;;;5052304;28;20800;-88
2022/07/06 13:12:39;;;;;;;9.07;1.58;;;;;;;;;;5070283;28;20384;-88
2022/07/06 13:15:06;;;;;;;2.17;1.00;;;;;;;;;;5072672;28;20478;-88
2022/07/06 13:17:32;;;;;;;3.38;1.40;;;;;;;;;;5055731;28;20460;-87
2022/07/06 13:19:58;;;;;;;2.58;1.20;;;;;;;;;;5052443;28;20736;-87
2022/07/06 13:22:24;;;;;;;2.20;1.30;;;;;;;;;;5051445;28;20405;-88
2022/07/06 13:24:51;;;;;;;2.97;1.27;;;;;;;;;;5057226;28;20453;-87
2022/07/06 13:27:17;;;;;;;2.10;1.23;;;;;;;;;;5070703;28;20889;-87
2022/07/06 13:29:43;;;;;;;1.55;1.10;;;;;;;;;;5072376;28;20387;-88
2022/07/06 13:32:09;;;;;;;2.42;1.10;;;;;;;;;;5071183;28;20733;-87
2022/07/06 13:34:35;;;;;;;2.05;1.20;;;;;;;;;;5071116;28;20380;-87
2022/07/06 13:37:02;;;;;;;3.65;1.00;;;;;;;;;;5071852;28;20459;-87
2022/07/06 13:39:28;;;;;;;2.58;1.23;;;;;;;;;;5072221;28;20390;-87
2022/07/06 13:41:54;;;;;;;2.72;1.13;;;;;;;;;;5072362;28;20387;-87
2022/07/06 13:44:20;;;;;;;3.33;1.30;;;;;;;;;;5070622;28;20380;-87
2022/07/06 13:46:46;;;;;;;1.48;1.10;;;;;;;;;;5072188;28;20426;-88
2022/07/06 13:49:13;;;;;;;1.48;1.20;;;;;;;;;;5072031;28;20379;-88
2022/07/06 13:51:39;;;;;;;1.83;1.10;;;;;;;;;;5072072;28;20876;-88
2022/07/06 13:54:06;;;;;;;3.83;1.00;;;;;;;;;;5071693;28;20463;-87
2022/07/06 13:56:32;;;;;;;1.48;1.08;;;;;;;;;;5072098;28;20393;-87
2022/07/06 13:58:58;;;;;;;2.95;1.30;;;;;;;;;;5072083;28;20849;-88
2022/07/06 14:01:24;;;;;;;1.70;1.00;;;;;;;;;;5070217;28;20754;-87
2022/07/06 14:03:50;;;;;;;2.00;1.20;;;;;;;;;;5070715;28;20957;-87
2022/07/06 14:06:16;;;;;;;6.35;1.33;;;;;;;;;;5071966;28;20407;-87
2022/07/06 14:08:43;;;;;;;3.80;1.10;;;;;;;;;;5071996;28;20432;-86
2022/07/06 14:11:09;;;;;;;2.60;1.17;;;;;;;;;;5071895;28;20375;-86
2022/07/06 14:13:36;;;;;;;2.08;1.00;;;;;;;;;;5070758;28;20480;-86
2022/07/06 14:16:02;;;;;;;1.38;1.27;;;;;;;;;;5071626;28;20899;-87
2022/07/06 14:18:28;;;;;;;1.67;1.30;;;;;;;;;;5070583;28;20415;-86
2022/07/06 14:20:55;;;;;;;2.10;1.05;;;;;;;;;;5071320;28;20403;-87
2022/07/06 14:23:21;;;;;;;2.05;1.20;;;;;;;;;;5071915;28;20521;-87
2022/07/06 14:25:47;;;;;;;2.38;1.10;;;;;;;;;;5071993;28;20407;-86
2022/07/06 14:28:13;;;;;;;1.45;1.10;;;;;;;;;;5071769;28;20387;-87
2022/07/06 14:30:40;;;;;;;2.97;1.30;;;;;;;;;;5071754;28;20440;-87
2022/07/06 14:33:07;;;;;;;1.83;1.20;;;;;;;;;;5071309;28;20458;-86
2022/07/06 14:35:36;;;;;;;2.50;1.20;;;;;;;;;;5074275;28;20434;-87
2022/07/06 14:38:03;;;;;;;2.55;1.17;;;;;;;;;;5071285;28;20372;-87
2022/07/06 14:40:30;;;;;;;2.93;0.90;;;;;;;;;;5074256;28;20376;-88
2022/07/06 14:42:56;;;;;;;3.17;1.30;;;;;;;;;;5071664;28;20425;-87
2022/07/06 14:45:22;;;;;;;2.47;1.20;;;;;;;;;;5071179;28;20376;-86
2022/07/06 14:47:48;;;;;;;1.75;1.00;;;;;;;;;;5071601;28;20380;-86
2022/07/06 14:50:14;;;;;;;3.58;1.10;;;;;;;;;;5070892;28;20387;-86